Time;durP1;ratioP1;P1;durP2;ratioP2;P2;SDS_P1;SDS_P2;PMS_P1;PMS_P2;Temp;Humidity;BMP_temperature;BMP_pressure;BME280_temperature;BME280_humidity;BME280_pressure;Samples;Min_cycle;Max_cycle;Signal;HPM_P1;HPM_P2
2021/10/09 00:01:29;;;;;;;3.60;1.08;;;;;;;;;;5028881;28;20037;-73
2021/10/09 00:03:55;;;;;;;5.22;1.08;;;;;;;;;;5028708;28;20033;-73
2021/10/09 00:06:21;;;;;;;6.20;1.40;;;;;;;;;;5028737;28;20025;-72
2021/10/09 00:08:48;;;;;;;2.58;1.25;;;;;;;;;;5027323;28;20112;-73
2021/10/09 00:11:18;;;;;;;4.13;1.10;;;;;;;;;;5028452;28;20032;-73
2021/10/09 00:13:44;;;;;;;10.52;1.55;;;;;;;;;;5027404;28;20029;-74
2021/10/09 00:16:10;;;;;;;6.00;1.27;;;;;;;;;;5026612;28;20150;-73
2021/10/09 00:18:37;;;;;;;3.72;1.10;;;;;;;;;;5027409;28;20064;-73
2021/10/09 00:21:03;;;;;;;11.07;1.40;;;;;;;;;;5027629;28;20032;-73
2021/10/09 00:23:29;;;;;;;4.18;1.00;;;;;;;;;;5028363;28;20060;-73
2021/10/09 00:25:57;;;;;;;4.15;1.30;;;;;;;;;;5027038;28;20100;-73
2021/10/09 00:28:23;;;;;;;6.75;1.88;;;;;;;;;;5028180;28;20432;-74
2021/10/09 00:30:49;;;;;;;3.53;1.55;;;;;;;;;;5027536;28;20039;-73
2021/10/09 00:33:15;;;;;;;5.22;1.17;;;;;;;;;;5027196;28;20033;-73
2021/10/09 00:35:42;;;;;;;5.47;1.20;;;;;;;;;;5025804;28;20477;-73
2021/10/09 00:38:08;;;;;;;6.38;1.40;;;;;;;;;;5026749;28;20037;-73
2021/10/09 00:40:34;;;;;;;7.45;1.33;;;;;;;;;;5028178;28;20021;-73
2021/10/09 00:43:00;;;;;;;2.92;1.05;;;;;;;;;;5028005;28;20037;-73
2021/10/09 00:45:26;;;;;;;6.05;1.30;;;;;;;;;;5026063;28;20094;-73
2021/10/09 00:47:52;;;;;;;2.05;0.90;;;;;;;;;;5027629;28;20029;-73
2021/10/09 00:50:19;;;;;;;6.90;1.02;;;;;;;;;;5028219;28;20017;-74
2021/10/09 00:52:46;;;;;;;4.95;1.00;;;;;;;;;;5027228;28;20596;-73
2021/10/09 00:55:13;;;;;;;6.72;1.10;;;;;;;;;;5008411;28;20028;-73
2021/10/09 00:57:40;;;;;;;2.92;0.98;;;;;;;;;;5006553;28;20030;-74
2021/10/09 01:00:07;;;;;;;3.75;1.10;;;;;;;;;;5020519;28;20038;-74
2021/10/09 01:02:37;;;;;;;4.32;1.30;;;;;;;;;;5025579;28;20063;-73
2021/10/09 01:05:04;;;;;;;6.15;1.13;;;;;;;;;;5027610;28;20112;-73
2021/10/09 01:07:30;;;;;;;2.78;0.90;;;;;;;;;;5026055;28;20535;-74
2021/10/09 01:09:56;;;;;;;7.57;1.42;;;;;;;;;;5027541;28;20049;-73
2021/10/09 01:12:22;;;;;;;2.00;0.88;;;;;;;;;;5027399;28;20041;-73
2021/10/09 01:14:49;;;;;;;3.45;1.10;;;;;;;;;;5027360;28;20041;-73
2021/10/09 01:17:15;;;;;;;5.00;1.63;;;;;;;;;;5027183;28;20025;-74
2021/10/09 01:19:41;;;;;;;8.57;2.10;;;;;;;;;;5027640;28;20013;-73
2021/10/09 01:22:08;;;;;;;5.78;1.30;;;;;;;;;;5025594;28;20497;-73
2021/10/09 01:24:36;;;;;;;5.35;1.08;;;;;;;;;;5014564;28;20474;-73
2021/10/09 01:27:02;;;;;;;5.38;1.30;;;;;;;;;;5022673;28;20090;-73
2021/10/09 01:29:28;;;;;;;3.97;1.10;;;;;;;;;;5007184;28;20050;-73
2021/10/09 01:31:54;;;;;;;4.43;1.30;;;;;;;;;;5007306;28;20474;-73
2021/10/09 01:34:25;;;;;;;4.65;1.20;;;;;;;;;;5021740;28;20609;-73
2021/10/09 01:36:52;;;;;;;3.88;1.00;;;;;;;;;;5022048;28;20044;-73
2021/10/09 01:39:18;;;;;;;5.35;1.30;;;;;;;;;;5027232;28;20060;-73
2021/10/09 01:41:46;;;;;;;3.75;1.10;;;;;;;;;;5026767;28;20497;-73
2021/10/09 01:44:13;;;;;;;3.00;1.20;;;;;;;;;;5025956;28;20022;-73
2021/10/09 01:46:39;;;;;;;6.40;1.55;;;;;;;;;;5026536;28;20373;-74
2021/10/09 01:49:06;;;;;;;7.43;1.20;;;;;;;;;;5024975;28;20551;-73
2021/10/09 01:51:32;;;;;;;3.25;1.17;;;;;;;;;;5026540;28;20394;-73
2021/10/09 01:53:59;;;;;;;3.38;1.20;;;;;;;;;;5026788;28;20029;-74
2021/10/09 01:56:25;;;;;;;5.10;1.30;;;;;;;;;;5026883;28;20030;-74
2021/10/09 01:58:51;;;;;;;2.33;0.98;;;;;;;;;;5026934;28;20021;-73
2021/10/09 02:01:18;;;;;;;8.73;1.42;;;;;;;;;;5025566;28;20292;-76
2021/10/09 02:03:46;;;;;;;9.68;1.33;;;;;;;;;;5015645;28;20477;-75
2021/10/09 02:06:12;;;;;;;3.83;1.13;;;;;;;;;;5012696;28;20088;-73
2021/10/09 02:08:39;;;;;;;9.10;1.25;;;;;;;;;;5017949;28;20088;-73
2021/10/09 02:11:11;;;;;;;4.15;1.10;;;;;;;;;;5016560;28;20042;-73
2021/10/09 02:13:44;;;;;;;2.08;1.08;;;;;;;;;;5012632;28;20121;-73
2021/10/09 02:18:47;;;;;;;3.72;1.20;;;;;;;;;;5021885;28;20038;-73
2021/10/09 02:26:56;;;;;;;2.75;1.08;;;;;;;;;;5018781;28;20043;-73
2021/10/09 02:29:23;;;;;;;5.03;0.98;;;;;;;;;;5017010;28;20088;-73
2021/10/09 02:31:49;;;;;;;3.70;1.10;;;;;;;;;;5021834;28;20033;-73
2021/10/09 02:34:15;;;;;;;2.40;1.00;;;;;;;;;;5020500;28;20048;-73
2021/10/09 02:36:41;;;;;;;3.40;1.20;;;;;;;;;;5021718;28;20025;-74
2021/10/09 02:39:08;;;;;;;2.17;0.95;;;;;;;;;;5021187;28;20025;-74
2021/10/09 02:41:34;;;;;;;4.70;1.20;;;;;;;;;;5022330;28;20053;-73
2021/10/09 02:44:00;;;;;;;3.83;1.10;;;;;;;;;;5019843;28;20112;-73
2021/10/09 02:46:26;;;;;;;4.70;1.27;;;;;;;;;;5019179;28;20034;-74
2021/10/09 02:48:52;;;;;;;6.32;1.00;;;;;;;;;;5019735;28;20045;-73
2021/10/09 02:51:18;;;;;;;4.57;1.30;;;;;;;;;;5021207;28;20132;-73
2021/10/09 02:53:45;;;;;;;3.70;1.10;;;;;;;;;;5021583;28;20022;-73
2021/10/09 02:56:11;;;;;;;6.38;1.20;;;;;;;;;;5021761;28;20034;-73
2021/10/09 02:58:37;;;;;;;8.18;1.33;;;;;;;;;;5025555;28;20100;-73
2021/10/09 03:01:03;;;;;;;3.20;1.10;;;;;;;;;;5025421;28;20026;-73
2021/10/09 03:03:29;;;;;;;6.88;1.42;;;;;;;;;;5019657;28;20029;-73
2021/10/09 03:05:55;;;;;;;3.42;1.30;;;;;;;;;;5023094;28;20033;-74
2021/10/09 03:08:22;;;;;;;5.93;1.35;;;;;;;;;;5022838;28;20114;-74
2021/10/09 03:10:48;;;;;;;5.38;1.30;;;;;;;;;;5021039;28;20033;-73
2021/10/09 03:13:14;;;;;;;2.63;1.40;;;;;;;;;;5022816;28;20025;-73
2021/10/09 03:15:40;;;;;;;2.40;1.20;;;;;;;;;;5022307;28;20109;-74
2021/10/09 03:18:06;;;;;;;5.72;1.80;;;;;;;;;;5021244;28;20106;-74
2021/10/09 03:20:33;;;;;;;4.20;1.33;;;;;;;;;;5023047;28;20044;-73
2021/10/09 03:22:59;;;;;;;4.40;1.13;;;;;;;;;;5022413;28;20041;-73
2021/10/09 03:25:25;;;;;;;3.58;1.60;;;;;;;;;;5022688;28;20037;-73
2021/10/09 03:27:51;;;;;;;3.65;1.13;;;;;;;;;;5022035;28;20503;-73
2021/10/09 03:30:18;;;;;;;5.47;1.38;;;;;;;;;;5021144;28;20726;-73
2021/10/09 03:32:44;;;;;;;4.95;1.33;;;;;;;;;;5022582;28;20800;-73
2021/10/09 03:35:10;;;;;;;4.13;1.30;;;;;;;;;;5022195;28;20026;-73
2021/10/09 03:37:37;;;;;;;4.88;1.77;;;;;;;;;;5015822;28;20107;-73
2021/10/09 03:40:05;;;;;;;2.58;1.25;;;;;;;;;;5024722;28;20029;-73
2021/10/09 03:45:45;;;;;;;2.85;1.20;;;;;;;;;;5024442;28;20128;-73
2021/10/09 03:47:59;;;;;;;8.13;1.67;;;;;;;;;;5017121;28;20042;-74
2021/10/09 03:53:04;;;;;;;6.55;1.10;;;;;;;;;;5020346;28;20060;-73
2021/10/09 03:55:31;;;;;;;6.45;2.20;;;;;;;;;;5024141;28;20041;-73
2021/10/09 03:57:57;;;;;;;10.65;1.75;;;;;;;;;;5022817;28;20026;-73
2021/10/09 04:00:24;;;;;;;3.80;1.00;;;;;;;;;;5024363;28;20039;-73
2021/10/09 04:02:50;;;;;;;3.30;1.20;;;;;;;;;;5023590;28;20116;-74
2021/10/09 04:05:16;;;;;;;3.80;1.30;;;;;;;;;;5024110;28;20027;-74
2021/10/09 04:07:43;;;;;;;4.03;1.27;;;;;;;;;;5021315;28;20414;-73
2021/10/09 04:10:10;;;;;;;6.38;1.50;;;;;;;;;;5022696;28;20448;-73
2021/10/09 04:12:36;;;;;;;4.25;1.45;;;;;;;;;;5023657;28;20038;-73
2021/10/09 04:15:03;;;;;;;7.05;1.67;;;;;;;;;;5024408;28;20544;-73
2021/10/09 04:17:29;;;;;;;7.88;1.60;;;;;;;;;;5022177;28;20112;-73
2021/10/09 04:19:55;;;;;;;2.40;1.10;;;;;;;;;;5005643;28;20037;-73
2021/10/09 04:22:21;;;;;;;3.25;1.30;;;;;;;;;;5008162;28;20021;-73
2021/10/09 04:24:47;;;;;;;7.68;2.67;;;;;;;;;;5019741;28;20029;-74
2021/10/09 04:27:13;;;;;;;5.80;1.63;;;;;;;;;;4998846;28;20441;-73
2021/10/09 04:29:40;;;;;;;5.65;1.48;;;;;;;;;;5009540;28;20049;-74
2021/10/09 04:32:06;;;;;;;4.35;1.33;;;;;;;;;;5021236;28;20037;-76
2021/10/09 04:34:32;;;;;;;6.00;1.67;;;;;;;;;;5019683;28;20042;-73
2021/10/09 04:36:58;;;;;;;4.32;1.30;;;;;;;;;;5020763;28;20036;-73
2021/10/09 04:39:28;;;;;;;1.80;1.20;;;;;;;;;;5020376;28;20492;-74
2021/10/09 04:41:54;;;;;;;5.25;1.63;;;;;;;;;;5019389;28;20068;-74
2021/10/09 04:44:22;;;;;;;4.60;1.50;;;;;;;;;;5021001;28;20385;-74
2021/10/09 04:46:48;;;;;;;5.18;1.48;;;;;;;;;;5020966;28;20091;-74
2021/10/09 04:49:15;;;;;;;5.10;1.58;;;;;;;;;;5020551;28;20026;-74
2021/10/09 04:51:41;;;;;;;5.07;1.65;;;;;;;;;;5020798;28;20044;-74
2021/10/09 04:54:07;;;;;;;5.82;1.60;;;;;;;;;;5019125;28;20576;-74
2021/10/09 04:56:33;;;;;;;6.45;1.60;;;;;;;;;;5020723;28;20056;-74
2021/10/09 04:59:00;;;;;;;6.63;1.52;;;;;;;;;;5018792;28;20025;-74
2021/10/09 05:01:26;;;;;;;3.53;1.40;;;;;;;;;;5018894;28;20891;-74
2021/10/09 05:03:52;;;;;;;8.63;1.92;;;;;;;;;;5021013;28;21020;-74
2021/10/09 05:06:18;;;;;;;6.78;1.70;;;;;;;;;;5020882;28;20421;-74
2021/10/09 05:08:44;;;;;;;5.22;1.40;;;;;;;;;;5020441;28;20029;-74
2021/10/09 05:11:10;;;;;;;3.80;1.60;;;;;;;;;;5020394;28;20472;-74
2021/10/09 05:13:36;;;;;;;4.75;1.40;;;;;;;;;;5019698;28;20595;-73
2021/10/09 05:16:03;;;;;;;3.47;1.50;;;;;;;;;;5019676;28;20065;-74
2021/10/09 05:18:29;;;;;;;6.32;1.60;;;;;;;;;;5019657;28;20402;-74
2021/10/09 05:20:55;;;;;;;7.80;1.88;;;;;;;;;;5020741;28;20033;-74
2021/10/09 05:23:21;;;;;;;6.32;1.65;;;;;;;;;;5019739;28;20375;-74
2021/10/09 05:25:49;;;;;;;6.70;1.75;;;;;;;;;;5006617;28;20073;-74
2021/10/09 05:28:18;;;;;;;5.20;1.80;;;;;;;;;;5006650;28;20049;-74
2021/10/09 05:30:48;;;;;;;6.50;1.55;;;;;;;;;;5020353;28;20029;-74
2021/10/09 05:33:25;;;;;;;4.13;1.50;;;;;;;;;;5004748;28;20133;-74
2021/10/09 05:35:52;;;;;;;7.97;1.80;;;;;;;;;;5017684;28;20037;-75
2021/10/09 05:38:18;;;;;;;3.20;1.27;;;;;;;;;;5022211;28;20273;-74
2021/10/09 05:40:44;;;;;;;6.50;1.50;;;;;;;;;;5020131;28;20045;-73
2021/10/09 05:43:10;;;;;;;4.70;1.23;;;;;;;;;;5021737;28;20477;-72
2021/10/09 05:45:36;;;;;;;6.82;1.40;;;;;;;;;;5021727;28;20025;-73
2021/10/09 05:48:03;;;;;;;4.40;1.73;;;;;;;;;;5021843;28;20923;-73
2021/10/09 05:50:36;;;;;;;2.80;1.30;;;;;;;;;;5022377;28;20482;-73
2021/10/09 05:55:49;;;;;;;2.63;1.73;;;;;;;;;;5021805;28;20045;-73
2021/10/09 05:58:25;;;;;;;3.15;1.58;;;;;;;;;;5019924;28;20425;-72
2021/10/09 06:01:34;;;;;;;4.03;1.50;;;;;;;;;;5013845;28;20032;-73
2021/10/09 07:00:45;;;;;;;3.95;1.90;;;;;;;;;;5025464;28;20079;-73
2021/10/09 07:03:16;;;;;;;3.03;1.52;;;;;;;;;;5025676;28;20025;-73
2021/10/09 07:05:42;;;;;;;3.58;1.40;;;;;;;;;;5025212;28;20539;-73
2021/10/09 07:08:09;;;;;;;4.22;1.48;;;;;;;;;;5025336;28;20522;-73
2021/10/09 07:10:40;;;;;;;3.05;1.67;;;;;;;;;;5023481;28;20097;-73
2021/10/09 07:13:06;;;;;;;2.58;1.67;;;;;;;;;;5024921;28;20037;-73
2021/10/09 07:15:33;;;;;;;3.30;1.60;;;;;;;;;;5025107;28;20544;-73
2021/10/09 07:17:59;;;;;;;4.40;2.38;;;;;;;;;;5024561;28;20130;-73
2021/10/09 07:20:25;;;;;;;3.55;2.25;;;;;;;;;;5021349;28;20021;-73
2021/10/09 07:22:51;;;;;;;11.05;3.47;;;;;;;;;;5024134;28;20017;-73
2021/10/09 07:25:18;;;;;;;5.00;2.47;;;;;;;;;;5007628;28;20036;-73
2021/10/09 07:27:46;;;;;;;3.33;2.00;;;;;;;;;;5004396;28;20037;-73
2021/10/09 07:30:12;;;;;;;4.75;2.53;;;;;;;;;;5003524;28;20025;-74
2021/10/09 07:32:38;;;;;;;3.95;2.10;;;;;;;;;;5001157;28;20070;-73
2021/10/09 07:35:05;;;;;;;2.55;2.25;;;;;;;;;;5001655;28;20486;-72
2021/10/09 07:37:31;;;;;;;3.83;2.13;;;;;;;;;;5004075;28;20643;-72
2021/10/09 07:39:58;;;;;;;4.97;2.20;;;;;;;;;;5004223;28;20034;-72
2021/10/09 07:42:24;;;;;;;8.73;2.17;;;;;;;;;;5002247;28;20021;-73
2021/10/09 07:44:50;;;;;;;3.00;1.73;;;;;;;;;;5002730;28;20068;-72
2021/10/09 07:47:19;;;;;;;2.35;1.40;;;;;;;;;;5003965;28;20056;-73
2021/10/09 07:49:46;;;;;;;3.00;1.20;;;;;;;;;;5005683;28;20030;-73
2021/10/09 07:52:12;;;;;;;2.50;1.50;;;;;;;;;;5001956;28;20108;-73
2021/10/09 07:54:38;;;;;;;1.90;1.45;;;;;;;;;;5010298;28;20022;-74
2021/10/09 07:57:05;;;;;;;1.50;1.27;;;;;;;;;;5024200;28;20033;-74
2021/10/09 07:59:31;;;;;;;4.95;1.45;;;;;;;;;;5022376;28;20056;-74
2021/10/09 08:01:57;;;;;;;1.38;0.93;;;;;;;;;;5023746;28;20078;-74
2021/10/09 08:04:24;;;;;;;3.28;1.55;;;;;;;;;;5020058;28;20097;-74
2021/10/09 08:06:50;;;;;;;2.22;0.93;;;;;;;;;;5021018;28;20029;-74
2021/10/09 08:09:17;;;;;;;4.97;1.10;;;;;;;;;;5023446;28;20080;-73
2021/10/09 08:11:43;;;;;;;4.25;1.10;;;;;;;;;;5020127;28;20087;-74
2021/10/09 08:14:09;;;;;;;2.55;1.10;;;;;;;;;;5023430;28;20017;-73
2021/10/09 08:16:36;;;;;;;17.15;1.90;;;;;;;;;;5023286;28;20047;-73
2021/10/09 08:19:02;;;;;;;3.80;1.40;;;;;;;;;;5025013;28;20033;-72
2021/10/09 08:21:31;;;;;;;1.10;0.90;;;;;;;;;;5024475;28;20032;-73
2021/10/09 08:40:13;;;;;;;1.85;0.65;;;;;;;;;;5017807;28;20034;-74
2021/10/09 08:42:39;;;;;;;4.18;0.75;;;;;;;;;;5024668;28;20029;-74
2021/10/09 08:45:06;;;;;;;1.90;0.70;;;;;;;;;;5024696;28;20115;-74
2021/10/09 08:47:34;;;;;;;1.45;0.70;;;;;;;;;;5025252;28;20026;-74
2021/10/09 08:50:01;;;;;;;1.20;0.70;;;;;;;;;;5024196;28;20034;-74
2021/10/09 08:52:27;;;;;;;3.75;0.80;;;;;;;;;;5025614;28;20034;-75
2021/10/09 08:54:53;;;;;;;0.90;0.70;;;;;;;;;;5024008;28;20397;-74
2021/10/09 08:57:22;;;;;;;2.15;0.93;;;;;;;;;;5024750;28;20037;-73
2021/10/09 08:59:56;;;;;;;3.13;1.10;;;;;;;;;;5022555;28;20172;-74
2021/10/09 09:02:44;;;;;;;2.25;0.80;;;;;;;;;;5024966;28;20084;-74
2021/10/09 09:05:39;;;;;;;1.98;1.10;;;;;;;;;;5025552;28;20029;-74
2021/10/09 09:08:21;;;;;;;1.58;0.85;;;;;;;;;;5024239;28;20513;-74
2021/10/09 09:34:07;;;;;;;1.15;0.80;;;;;;;;;;5024686;28;20136;-72
2021/10/09 09:41:22;;;;;;;2.88;1.00;;;;;;;;;;5022775;28;20123;-73
2021/10/09 09:43:51;;;;;;;2.50;0.85;;;;;;;;;;5024491;28;20021;-73
2021/10/09 09:46:18;;;;;;;2.28;0.90;;;;;;;;;;5024344;28;20030;-74
2021/10/09 09:48:46;;;;;;;3.30;0.80;;;;;;;;;;5024325;28;20017;-73
2021/10/09 09:51:13;;;;;;;3.33;1.10;;;;;;;;;;5022888;28;20400;-74
2021/10/09 09:53:40;;;;;;;3.30;0.80;;;;;;;;;;5024651;28;20182;-74
2021/10/09 09:56:07;;;;;;;1.73;1.20;;;;;;;;;;5024554;28;20579;-73
2021/10/09 09:58:36;;;;;;;5.90;1.25;;;;;;;;;;5024328;28;20017;-73
2021/10/09 10:01:03;;;;;;;3.17;0.88;;;;;;;;;;5024161;28;20092;-74
2021/10/09 10:03:30;;;;;;;2.33;1.00;;;;;;;;;;5023049;28;20033;-73
2021/10/09 10:05:56;;;;;;;1.60;0.95;;;;;;;;;;5023454;28;20026;-74
2021/10/09 10:08:23;;;;;;;2.10;0.85;;;;;;;;;;5024559;28;20029;-74
2021/10/09 10:10:51;;;;;;;2.50;1.08;;;;;;;;;;5024169;28;20025;-74
2021/10/09 10:13:18;;;;;;;2.65;1.15;;;;;;;;;;5024566;28;20041;-74
2021/10/09 10:15:44;;;;;;;1.85;0.90;;;;;;;;;;5024135;28;20036;-72
2021/10/09 10:18:13;;;;;;;1.50;0.75;;;;;;;;;;5022700;28;20164;-74
2021/10/09 10:20:51;;;;;;;4.40;1.38;;;;;;;;;;5024181;28;20171;-74
2021/10/09 10:23:33;;;;;;;1.73;0.80;;;;;;;;;;5024321;28;20026;-74
2021/10/09 10:26:20;;;;;;;5.85;1.10;;;;;;;;;;5022455;28;20811;-74
2021/10/09 10:29:09;;;;;;;1.83;0.95;;;;;;;;;;5019673;28;20045;-73
2021/10/09 10:31:36;;;;;;;2.30;0.95;;;;;;;;;;5020950;28;20050;-73
2021/10/09 10:34:21;;;;;;;3.38;1.20;;;;;;;;;;5024428;28;20036;-73
2021/10/09 10:36:48;;;;;;;1.58;0.70;;;;;;;;;;5022610;28;20025;-74
2021/10/09 10:39:19;;;;;;;4.22;1.08;;;;;;;;;;5023054;28;20026;-73
2021/10/09 10:41:59;;;;;;;1.92;1.00;;;;;;;;;;5023744;28;20409;-73
2021/10/09 10:47:45;;;;;;;1.58;1.00;;;;;;;;;;5023951;28;20079;-74
2021/10/09 10:50:30;;;;;;;2.42;1.08;;;;;;;;;;5024102;28;20029;-74
2021/10/09 10:53:02;;;;;;;3.42;0.90;;;;;;;;;;5023829;28;20117;-74
2021/10/09 10:55:48;;;;;;;3.33;1.08;;;;;;;;;;5022549;28;20123;-73
2021/10/09 10:58:20;;;;;;;1.88;1.05;;;;;;;;;;5023966;28;20022;-73
2021/10/09 11:01:06;;;;;;;3.25;1.05;;;;;;;;;;5023967;28;20030;-74
2021/10/09 11:03:32;;;;;;;2.05;0.90;;;;;;;;;;5023499;28;20611;-74
2021/10/09 11:05:58;;;;;;;2.45;0.90;;;;;;;;;;5023964;28;20029;-73
2021/10/09 11:08:25;;;;;;;2.55;0.80;;;;;;;;;;5023997;28;20025;-74
2021/10/09 11:10:51;;;;;;;2.20;1.20;;;;;;;;;;5022279;28;20052;-73
2021/10/09 11:13:17;;;;;;;2.03;0.98;;;;;;;;;;5023371;28;20114;-74
2021/10/09 11:15:47;;;;;;;1.60;1.02;;;;;;;;;;5023433;28;20022;-73
2021/10/09 11:18:13;;;;;;;3.65;1.20;;;;;;;;;;5026803;28;20041;-73
2021/10/09 11:20:42;;;;;;;2.22;1.00;;;;;;;;;;5027374;28;20069;-74
2021/10/09 11:23:10;;;;;;;2.60;1.20;;;;;;;;;;5027330;28;20057;-73
2021/10/09 11:25:37;;;;;;;2.83;1.40;;;;;;;;;;5026386;28;20029;-73
2021/10/09 11:28:04;;;;;;;3.05;1.45;;;;;;;;;;5025483;28;20405;-74
2021/10/09 11:30:31;;;;;;;2.50;1.10;;;;;;;;;;5026815;28;20041;-74
2021/10/09 11:32:58;;;;;;;3.33;1.45;;;;;;;;;;5026538;28;20433;-73
2021/10/09 11:35:34;;;;;;;4.05;1.08;;;;;;;;;;5025625;28;20654;-73
2021/10/09 11:38:03;;;;;;;4.45;1.13;;;;;;;;;;5026822;28;20605;-74
2021/10/09 11:40:33;;;;;;;2.78;1.13;;;;;;;;;;5027094;28;20047;-73
2021/10/09 11:43:27;;;;;;;3.00;1.00;;;;;;;;;;5026893;28;20313;-73
2021/10/09 11:53:51;;;;;;;2.22;0.90;;;;;;;;;;5027110;28;20416;-74
2021/10/09 11:56:19;;;;;;;1.60;0.75;;;;;;;;;;5024355;28;20029;-74
2021/10/09 11:58:54;;;;;;;1.27;1.02;;;;;;;;;;5016865;28;20502;-74
2021/10/09 12:01:27;;;;;;;1.85;1.00;;;;;;;;;;5023687;28;20036;-73
2021/10/09 12:03:54;;;;;;;2.72;1.13;;;;;;;;;;5025874;28;20029;-73
2021/10/09 12:06:20;;;;;;;0.98;0.82;;;;;;;;;;5024936;28;20021;-73
2021/10/09 12:08:47;;;;;;;3.15;1.58;;;;;;;;;;5026404;28;20018;-74
2021/10/09 12:11:26;;;;;;;2.97;1.00;;;;;;;;;;5026264;28;20032;-73
2021/10/09 12:13:54;;;;;;;2.67;1.08;;;;;;;;;;5023688;28;20017;-74
2021/10/09 12:16:39;;;;;;;2.58;1.00;;;;;;;;;;5025808;28;20024;-72
2021/10/09 12:19:16;;;;;;;3.47;1.20;;;;;;;;;;5026170;28;20060;-73
2021/10/09 12:21:52;;;;;;;4.75;1.25;;;;;;;;;;5025986;28;20029;-72
2021/10/09 12:24:18;;;;;;;1.83;0.90;;;;;;;;;;5026255;28;20032;-74
2021/10/09 12:26:59;;;;;;;2.20;1.00;;;;;;;;;;5024788;28;20381;-74
2021/10/09 12:29:26;;;;;;;2.03;0.80;;;;;;;;;;5023710;28;20056;-74
2021/10/09 12:31:52;;;;;;;1.48;0.80;;;;;;;;;;5025387;28;20474;-73
2021/10/09 12:34:31;;;;;;;2.45;0.88;;;;;;;;;;5025891;28;20493;-73
2021/10/09 12:37:15;;;;;;;1.70;1.00;;;;;;;;;;5025880;28;20030;-73
2021/10/09 12:39:42;;;;;;;3.10;0.80;;;;;;;;;;5025814;28;20142;-73
2021/10/09 12:42:08;;;;;;;1.60;0.98;;;;;;;;;;5024120;28;20457;-73
2021/10/09 12:44:34;;;;;;;2.22;1.00;;;;;;;;;;5025799;28;20021;-73
2021/10/09 12:47:00;;;;;;;2.92;1.38;;;;;;;;;;5025607;28;20041;-73
2021/10/09 12:49:26;;;;;;;2.85;1.50;;;;;;;;;;5025566;28;20355;-74
2021/10/09 12:51:53;;;;;;;5.63;1.55;;;;;;;;;;5025485;28;20038;-73
2021/10/09 12:54:19;;;;;;;2.70;1.23;;;;;;;;;;5025569;28;20022;-74
2021/10/09 12:56:47;;;;;;;2.00;1.17;;;;;;;;;;5024358;28;20491;-73
2021/10/09 12:59:13;;;;;;;4.40;1.15;;;;;;;;;;5025769;28;20028;-73
2021/10/09 13:01:39;;;;;;;10.52;3.35;;;;;;;;;;5025487;28;20064;-73
2021/10/09 13:04:06;;;;;;;13.57;4.38;;;;;;;;;;5025382;28;20021;-73
2021/10/09 13:06:32;;;;;;;13.82;4.35;;;;;;;;;;5025657;28;20527;-73
2021/10/09 13:08:59;;;;;;;15.10;4.90;;;;;;;;;;5024279;28;20474;-73
2021/10/09 13:11:31;;;;;;;11.30;3.55;;;;;;;;;;5024819;28;20385;-73
2021/10/09 13:13:57;;;;;;;8.43;2.85;;;;;;;;;;5024066;28;20119;-73
2021/10/09 13:16:24;;;;;;;6.50;2.72;;;;;;;;;;5024409;28;20025;-72
2021/10/09 13:18:50;;;;;;;7.30;3.25;;;;;;;;;;5009018;28;20521;-73
2021/10/09 13:21:16;;;;;;;4.47;2.25;;;;;;;;;;5007890;28;20025;-73
2021/10/09 13:23:42;;;;;;;6.13;2.42;;;;;;;;;;5006779;28;20038;-73
2021/10/09 13:26:08;;;;;;;6.00;2.42;;;;;;;;;;5024516;28;20562;-73
2021/10/09 13:28:37;;;;;;;4.63;2.33;;;;;;;;;;5024072;28;20104;-74
2021/10/09 13:31:03;;;;;;;4.45;2.30;;;;;;;;;;5023064;28;20264;-74
2021/10/09 13:33:29;;;;;;;6.05;2.10;;;;;;;;;;5025170;28;20037;-73
2021/10/09 13:35:56;;;;;;;2.70;2.10;;;;;;;;;;5024535;28;20024;-74
2021/10/09 13:38:22;;;;;;;5.03;1.98;;;;;;;;;;5024894;28;20083;-74
2021/10/09 13:40:48;;;;;;;5.47;2.10;;;;;;;;;;5023506;28;20033;-73
2021/10/09 13:43:14;;;;;;;5.95;1.83;;;;;;;;;;5023191;28;20025;-73
2021/10/09 13:45:44;;;;;;;3.28;2.15;;;;;;;;;;5024786;28;20167;-73
2021/10/09 13:48:11;;;;;;;4.15;2.15;;;;;;;;;;5024957;28;20112;-74
2021/10/09 13:50:42;;;;;;;5.10;2.60;;;;;;;;;;5024575;28;20029;-74
2021/10/09 13:53:10;;;;;;;;;;;;;;;;;;5024864;28;20034;-74
2021/10/09 13:55:36;;;;;;;2.25;2.00;;;;;;;;;;5023501;28;20236;-74
2021/10/09 13:58:02;;;;;;;4.40;2.58;;;;;;;;;;5024365;28;20021;-74
2021/10/09 14:00:28;;;;;;;4.38;2.20;;;;;;;;;;5024300;28;20028;-73
2021/10/09 14:02:55;;;;;;;5.35;2.05;;;;;;;;;;5024221;28;20030;-74
2021/10/09 14:05:21;;;;;;;3.67;2.10;;;;;;;;;;5024768;28;20075;-74
2021/10/09 14:07:47;;;;;;;5.13;3.13;;;;;;;;;;5023133;28;20105;-74
2021/10/09 14:10:13;;;;;;;7.60;2.85;;;;;;;;;;5024626;28;20021;-73
2021/10/09 14:12:39;;;;;;;3.83;2.20;;;;;;;;;;5024220;28;20106;-74
2021/10/09 14:15:07;;;;;;;3.03;2.33;;;;;;;;;;5024673;28;20361;-73
2021/10/09 14:17:33;;;;;;;4.03;2.70;;;;;;;;;;5022712;28;20101;-73
2021/10/09 14:20:00;;;;;;;5.20;2.40;;;;;;;;;;5024257;28;20022;-73
2021/10/09 14:22:27;;;;;;;5.63;2.47;;;;;;;;;;5024248;28;20528;-74
2021/10/09 14:24:53;;;;;;;5.35;2.45;;;;;;;;;;5024444;28;20036;-73
2021/10/09 14:27:19;;;;;;;2.83;1.90;;;;;;;;;;5022963;28;20112;-74
2021/10/09 14:29:46;;;;;;;9.63;2.70;;;;;;;;;;5022480;28;20145;-73
2021/10/09 14:32:12;;;;;;;4.35;2.78;;;;;;;;;;5024128;28;20650;-73
2021/10/09 14:34:38;;;;;;;7.20;2.60;;;;;;;;;;5024173;28;20030;-73
2021/10/09 14:37:04;;;;;;;4.57;2.40;;;;;;;;;;5022944;28;20132;-74
2021/10/09 14:39:31;;;;;;;3.63;2.33;;;;;;;;;;5023938;28;20017;-73
2021/10/09 14:41:57;;;;;;;6.95;2.90;;;;;;;;;;5023742;28;20325;-73
2021/10/09 14:44:23;;;;;;;6.07;2.95;;;;;;;;;;5024658;28;20022;-74
2021/10/09 14:49:40;;;;;;;8.68;3.03;;;;;;;;;;5022451;28;20458;-74
2021/10/09 14:55:24;;;;;;;6.43;2.90;;;;;;;;;;5027937;28;20044;-74
2021/10/09 15:17:34;;;;;;;6.15;3.53;;;;;;;;;;5027616;28;20040;-74
2021/10/09 15:19:58;;;;;;;4.50;2.92;;;;;;;;;;5026951;28;20029;-73
2021/10/09 15:22:24;;;;;;;5.43;3.17;;;;;;;;;;5027755;28;20103;-73
2021/10/09 15:24:51;;;;;;;4.63;2.72;;;;;;;;;;5025547;28;20037;-74
2021/10/09 15:27:17;;;;;;;6.72;3.10;;;;;;;;;;5027322;28;20564;-74
2021/10/09 15:29:43;;;;;;;4.35;2.60;;;;;;;;;;5026768;28;20049;-73
2021/10/09 15:32:09;;;;;;;7.78;2.85;;;;;;;;;;5026875;28;20041;-74
2021/10/09 15:34:39;;;;;;;6.15;3.47;;;;;;;;;;5025437;28;20492;-73
2021/10/09 15:37:06;;;;;;;5.57;2.80;;;;;;;;;;5027347;28;20494;-73
2021/10/09 15:39:32;;;;;;;7.93;2.60;;;;;;;;;;5027273;28;20470;-74
2021/10/09 15:41:58;;;;;;;4.80;2.38;;;;;;;;;;5025954;28;20397;-74
2021/10/09 15:44:24;;;;;;;4.18;2.45;;;;;;;;;;5026430;28;20037;-74
2021/10/09 15:46:50;;;;;;;3.40;2.38;;;;;;;;;;5026922;28;20537;-73
2021/10/09 15:49:16;;;;;;;4.68;2.78;;;;;;;;;;5027100;28;20036;-73
2021/10/09 15:51:42;;;;;;;5.82;2.65;;;;;;;;;;5024906;28;20059;-73
2021/10/09 15:54:09;;;;;;;7.05;3.03;;;;;;;;;;5026967;28;20056;-74
2021/10/09 15:56:35;;;;;;;4.70;2.25;;;;;;;;;;5026624;28;20036;-74
2021/10/09 15:59:01;;;;;;;5.03;2.50;;;;;;;;;;5026384;28;20504;-73
2021/10/09 16:01:28;;;;;;;3.70;2.45;;;;;;;;;;5024828;28;20509;-73
2021/10/09 16:03:57;;;;;;;9.63;2.47;;;;;;;;;;5025265;28;20025;-73
2021/10/09 16:06:26;;;;;;;9.25;2.63;;;;;;;;;;5026214;28;20581;-73
2021/10/09 16:08:52;;;;;;;9.45;2.78;;;;;;;;;;5026504;28;20030;-73
2021/10/09 16:11:18;;;;;;;4.40;1.92;;;;;;;;;;5024856;28;20032;-74
2021/10/09 16:13:45;;;;;;;5.68;2.17;;;;;;;;;;5026418;28;20040;-73
2021/10/09 16:16:11;;;;;;;5.53;2.33;;;;;;;;;;5026159;28;20152;-73
2021/10/09 16:18:37;;;;;;;3.10;2.20;;;;;;;;;;5026674;28;20529;-73
2021/10/09 16:21:03;;;;;;;12.25;2.50;;;;;;;;;;5024630;28;20083;-72
2021/10/09 16:23:29;;;;;;;8.48;2.10;;;;;;;;;;5026016;28;20029;-73
2021/10/09 16:25:55;;;;;;;5.13;1.90;;;;;;;;;;5026153;28;20076;-74
2021/10/09 16:28:22;;;;;;;5.55;2.00;;;;;;;;;;5025692;28;20393;-74
2021/10/09 16:30:48;;;;;;;4.82;1.90;;;;;;;;;;5025324;28;20025;-73
2021/10/09 16:33:14;;;;;;;4.03;1.88;;;;;;;;;;5025926;28;20034;-73
2021/10/09 16:35:41;;;;;;;6.38;2.00;;;;;;;;;;5024360;28;20052;-74
2021/10/09 16:38:07;;;;;;;6.70;1.80;;;;;;;;;;5026133;28;20152;-74
2021/10/09 16:40:33;;;;;;;5.70;2.30;;;;;;;;;;5025653;28;20366;-73
2021/10/09 16:43:01;;;;;;;9.18;2.78;;;;;;;;;;5025995;28;20057;-74
2021/10/09 16:45:27;;;;;;;6.25;2.15;;;;;;;;;;5024654;28;20029;-74
2021/10/09 16:47:53;;;;;;;5.35;1.70;;;;;;;;;;5026024;28;20025;-73
2021/10/09 16:50:19;;;;;;;7.72;2.15;;;;;;;;;;5025756;28;20028;-74
2021/10/09 16:52:45;;;;;;;4.80;3.17;;;;;;;;;;5022400;28;20515;-74
2021/10/09 16:55:12;;;;;;;3.97;2.58;;;;;;;;;;5024042;28;20506;-73
2021/10/09 16:57:39;;;;;;;7.35;2.78;;;;;;;;;;5025392;28;20034;-74
2021/10/09 17:00:05;;;;;;;6.03;3.17;;;;;;;;;;5025494;28;20025;-73
2021/10/09 17:02:32;;;;;;;5.82;2.92;;;;;;;;;;5023269;28;20025;-73
2021/10/09 17:04:59;;;;;;;4.75;2.75;;;;;;;;;;5025387;28;20104;-74
2021/10/09 17:07:26;;;;;;;7.70;2.50;;;;;;;;;;5025216;28;20029;-73
2021/10/09 17:09:55;;;;;;;8.60;2.60;;;;;;;;;;5024864;28;20108;-74
2021/10/09 17:12:22;;;;;;;9.23;2.45;;;;;;;;;;5023523;28;20041;-73
2021/10/09 17:14:49;;;;;;;6.18;2.83;;;;;;;;;;5024714;28;20017;-74
2021/10/09 17:17:15;;;;;;;8.43;2.92;;;;;;;;;;5024896;28;20022;-73
2021/10/09 17:19:41;;;;;;;4.70;2.60;;;;;;;;;;5025131;28;20037;-74
2021/10/09 17:22:08;;;;;;;4.40;2.38;;;;;;;;;;5023647;28;20024;-73